Time;durP1;ratioP1;P1;durP2;ratioP2;P2;SDS_P1;SDS_P2;PMS_P1;PMS_P2;Temp;Humidity;BMP_temperature;BMP_pressure;BME280_temperature;BME280_humidity;BME280_pressure;Samples;Min_cycle;Max_cycle;Signal;HPM_P1;HPM_P2
2022/01/20 00:03:22;;;;;;;3.77;3.47;;;3.70;99.90;;;;;;5020857;28;20216;-75
2022/01/20 00:27:38;;;;;;;4.33;3.90;;;3.30;99.90;;;;;;5031417;28;20231;-74
2022/01/20 00:33:00;;;;;;;4.33;3.90;;;3.40;99.90;;;;;;5032311;28;20191;-75
2022/01/20 00:37:14;;;;;;;4.07;3.67;;;3.40;99.90;;;;;;5033057;28;20180;-74
2022/01/20 00:38:12;;;;;;;4.30;3.70;;;3.40;99.90;;;;;;5030309;28;20185;-74
2022/01/20 00:40:37;;;;;;;5.13;4.30;;;3.30;99.90;;;;;;5032098;28;20629;-75
2022/01/20 00:43:03;;;;;;;5.60;4.93;;;3.30;99.90;;;;;;5026191;28;20196;-75
2022/01/20 00:45:28;;;;;;;4.50;4.10;;;3.20;99.90;;;;;;5031599;28;20562;-74
2022/01/20 00:47:54;;;;;;;5.77;5.17;;;3.10;99.90;;;;;;5032113;28;20191;-74
2022/01/20 00:50:20;;;;;;;5.57;4.93;;;3.00;99.90;;;;;;5030766;28;20291;-74
2022/01/20 00:52:45;;;;;;;5.90;5.30;;;3.00;99.90;;;;;;5031322;28;20180;-74
2022/01/20 00:55:11;;;;;;;6.30;5.47;;;2.90;99.90;;;;;;5030670;28;20212;-74
2022/01/20 00:57:37;;;;;;;5.63;5.03;;;2.80;99.90;;;;;;5031060;28;20188;-74
2022/01/20 01:00:08;;;;;;;4.57;4.10;;;2.80;99.90;;;;;;5031361;28;20684;-74
2022/01/20 01:02:35;;;;;;;7.20;6.03;;;2.70;99.90;;;;;;5029920;28;20553;-74
2022/01/20 01:05:02;;;;;;;8.00;6.13;;;2.70;99.90;;;;;;5028590;28;20571;-74
2022/01/20 01:09:56;;;;;;;7.43;5.93;;;2.50;99.90;;;;;;5029982;28;20222;-74
2022/01/20 01:12:46;;;;;;;6.03;5.13;;;2.60;99.90;;;;;;5029754;28;20177;-74
2022/01/20 01:15:19;;;;;;;6.63;5.10;;;2.50;99.90;;;;;;5031385;28;20196;-74
2022/01/20 01:20:32;;;;;;;7.37;6.57;;;2.60;99.90;;;;;;5029475;28;20204;-74
2022/01/20 01:22:58;;;;;;;7.40;4.47;;;2.60;99.90;;;;;;5022918;28;20183;-74
2022/01/20 01:25:24;;;;;;;6.33;5.00;;;2.60;99.90;;;;;;5027887;28;20188;-74
2022/01/20 01:27:49;;;;;;;7.90;5.93;;;2.60;99.90;;;;;;5029669;28;20204;-74
2022/01/20 01:32:48;;;;;;;7.80;5.73;;;2.70;99.90;;;;;;5028502;28;20193;-74
2022/01/20 01:35:16;;;;;;;7.17;6.07;;;2.60;99.90;;;;;;5030617;28;20204;-74
2022/01/20 01:40:29;;;;;;;9.50;6.57;;;2.60;99.90;;;;;;5033256;28;20201;-74
2022/01/20 01:42:56;;;;;;;7.13;6.43;;;2.60;99.90;;;;;;5034364;28;20237;-73
2022/01/20 01:45:28;;;;;;;6.80;5.50;;;2.60;99.90;;;;;;5023269;28;20208;-74
2022/01/20 01:47:54;;;;;;;6.60;4.77;;;2.60;99.90;;;;;;5045334;28;20211;-74
2022/01/20 01:50:22;;;;;;;7.73;6.30;;;2.60;99.90;;;;;;5031053;28;20246;-74
2022/01/20 01:52:48;;;;;;;7.97;6.13;;;2.60;99.90;;;;;;5040642;28;20180;-74
2022/01/20 01:55:14;;;;;;;6.67;5.93;;;2.50;99.90;;;;;;5028772;28;20258;-74
2022/01/20 01:57:40;;;;;;;5.10;4.53;;;2.50;99.90;;;;;;5026245;28;20189;-74
2022/01/20 02:00:09;;;;;;;7.67;6.00;;;2.50;99.90;;;;;;5028202;28;20750;-74
2022/01/20 02:02:36;;;;;;;6.07;5.47;;;2.50;99.90;;;;;;5033307;28;20569;-74
2022/01/20 02:05:04;;;;;;;8.00;6.27;;;2.40;99.90;;;;;;5025800;28;20227;-73
2022/01/20 02:18:42;;;;;;;7.67;6.33;;;2.30;99.90;;;;;;5031167;28;20211;-74
2022/01/20 02:21:09;;;;;;;7.13;4.83;;;2.30;99.90;;;;;;5036143;28;20177;-73
2022/01/20 02:23:35;;;;;;;5.33;4.53;;;2.40;99.90;;;;;;5034417;28;20243;-73
2022/01/20 02:26:01;;;;;;;5.90;4.77;;;2.40;99.90;;;;;;5027132;28;20276;-73
2022/01/20 02:28:29;;;;;;;4.43;4.03;;;2.30;99.90;;;;;;5036866;28;20706;-74
2022/01/20 02:30:56;;;;;;;6.70;5.80;;;2.30;99.90;;;;;;5041292;28;20882;-73
2022/01/20 02:33:24;;;;;;;6.60;4.80;;;2.30;99.90;;;;;;5035331;28;20196;-74
2022/01/20 02:35:55;;;;;;;6.73;6.03;;;2.30;99.90;;;;;;5025186;28;20184;-73
2022/01/20 02:46:08;;;;;;;5.07;4.60;;;2.10;99.90;;;;;;5018298;28;20196;-73
2022/01/20 02:48:35;;;;;;;6.07;5.47;;;2.00;99.90;;;;;;5020113;28;21075;-73
2022/01/20 02:51:01;;;;;;;7.63;5.80;;;2.00;99.90;;;;;;5018571;28;20254;-73
2022/01/20 02:53:26;;;;;;;6.67;5.97;;;2.00;99.90;;;;;;5019306;28;20241;-73
2022/01/20 02:55:53;;;;;;;6.83;6.23;;;2.00;99.90;;;;;;5024278;28;20600;-74
2022/01/20 02:58:18;;;;;;;7.07;6.30;;;2.00;99.90;;;;;;5019848;28;20177;-74
2022/01/20 03:00:44;;;;;;;5.80;4.30;;;2.00;99.90;;;;;;5023454;28;20678;-74
2022/01/20 03:03:10;;;;;;;7.37;6.00;;;2.00;99.90;;;;;;5022368;28;20634;-73
2022/01/20 03:05:36;;;;;;;5.27;4.73;;;2.10;99.90;;;;;;5021460;28;20215;-73
2022/01/20 03:08:01;;;;;;;6.40;5.80;;;2.00;99.90;;;;;;5029210;28;20181;-73
2022/01/20 03:10:28;;;;;;;7.70;5.40;;;2.00;99.90;;;;;;5017253;28;20196;-74
2022/01/20 03:12:54;;;;;;;6.60;5.90;;;2.10;99.90;;;;;;5019109;28;20235;-73
2022/01/20 03:15:19;;;;;;;6.60;5.87;;;2.10;99.90;;;;;;5029001;28;20177;-73
2022/01/20 03:17:45;;;;;;;6.03;5.33;;;2.00;99.90;;;;;;5030898;28;20187;-73
2022/01/20 03:20:11;;;;;;;5.77;4.23;;;2.10;99.90;;;;;;5027531;28;20642;-73
2022/01/20 03:22:37;;;;;;;4.80;4.13;;;2.10;99.90;;;;;;5026792;28;20196;-73
2022/01/20 03:25:03;;;;;;;4.47;4.07;;;2.10;99.90;;;;;;5021324;28;20213;-73
2022/01/20 03:27:28;;;;;;;5.47;4.97;;;2.10;99.90;;;;;;5037962;28;20188;-74
2022/01/20 03:29:54;;;;;;;5.50;4.90;;;2.20;99.90;;;;;;5035163;28;20208;-74
2022/01/20 03:32:20;;;;;;;5.30;4.80;;;2.10;99.90;;;;;;5033137;28;20181;-74
2022/01/20 03:34:45;;;;;;;6.03;5.50;;;2.10;99.90;;;;;;5032618;28;20213;-74
2022/01/20 03:37:11;;;;;;;5.70;5.10;;;2.10;99.90;;;;;;5025545;28;20584;-74
2022/01/20 03:39:37;;;;;;;4.93;4.43;;;2.10;99.90;;;;;;5034341;28;20181;-74
2022/01/20 03:42:02;;;;;;;3.93;3.53;;;2.10;99.90;;;;;;5036908;28;20173;-74
2022/01/20 03:44:28;;;;;;;5.23;4.73;;;2.20;99.90;;;;;;5034363;28;20257;-74
2022/01/20 03:46:54;;;;;;;7.03;5.13;;;2.20;99.90;;;;;;5049777;28;20218;-74
2022/01/20 03:52:04;;;;;;;4.20;3.43;;;2.20;99.90;;;;;;5039820;28;20180;-74
2022/01/20 03:54:30;;;;;;;5.60;4.97;;;2.20;99.90;;;;;;5031444;28;20319;-74
2022/01/20 03:56:56;;;;;;;5.23;4.27;;;2.20;99.90;;;;;;5048296;28;20187;-74
2022/01/20 03:59:22;;;;;;;3.03;2.83;;;2.20;99.90;;;;;;5044688;28;20184;-73
2022/01/20 04:01:48;;;;;;;5.20;4.70;;;2.10;99.90;;;;;;4989544;28;1119029;-73
2022/01/20 04:04:14;;;;;;;4.80;3.60;;;2.10;99.90;;;;;;5031534;28;20640;-73
2022/01/20 04:06:39;;;;;;;4.00;3.60;;;2.20;99.90;;;;;;5033091;28;20605;-73
2022/01/20 04:09:05;;;;;;;4.87;4.37;;;2.20;99.90;;;;;;5030592;28;20605;-73
2022/01/20 04:11:31;;;;;;;5.20;4.70;;;2.20;99.90;;;;;;5041493;28;20212;-73
2022/01/20 04:13:57;;;;;;;3.87;3.07;;;2.20;99.90;;;;;;5049748;28;20204;-73
2022/01/20 04:16:50;;;;;;;4.73;4.17;;;2.20;99.90;;;;;;5038560;28;20187;-73
2022/01/20 04:19:16;;;;;;;3.70;3.50;;;2.10;99.90;;;;;;5043845;28;20184;-73
2022/01/20 04:21:42;;;;;;;4.83;4.43;;;2.20;99.90;;;;;;5035811;28;20181;-73
2022/01/20 04:24:08;;;;;;;3.43;3.00;;;2.30;99.90;;;;;;5036876;28;20238;-73
2022/01/20 04:26:35;;;;;;;3.17;3.00;;;2.20;99.90;;;;;;5033878;28;20548;-74
2022/01/20 04:29:01;;;;;;;5.33;4.00;;;2.30;99.90;;;;;;5039995;28;20184;-74
2022/01/20 04:31:30;;;;;;;4.03;3.73;;;2.20;99.90;;;;;;5035835;28;20208;-74
2022/01/20 04:33:56;;;;;;;3.80;3.50;;;2.30;99.90;;;;;;5037411;28;20204;-74
2022/01/20 04:36:23;;;;;;;3.90;3.57;;;2.30;99.90;;;;;;5034138;28;20181;-74
2022/01/20 04:38:49;;;;;;;4.30;4.00;;;2.30;99.90;;;;;;5034131;28;20530;-74
2022/01/20 04:41:14;;;;;;;4.23;3.83;;;2.30;99.90;;;;;;5045942;28;20183;-74
2022/01/20 04:43:40;;;;;;;4.03;3.73;;;2.30;99.90;;;;;;5047078;28;20250;-74
2022/01/20 04:59:33;;;;;;;3.13;2.93;;;2.40;99.90;;;;;;5030088;28;20199;-74
2022/01/20 05:02:00;;;;;;;4.30;3.90;;;2.40;99.90;;;;;;5045226;28;20198;-74
2022/01/20 05:04:26;;;;;;;4.47;3.27;;;2.40;99.90;;;;;;5040930;28;20251;-74
2022/01/20 05:06:54;;;;;;;3.87;3.60;;;2.50;99.90;;;;;;5036950;28;20694;-74
2022/01/20 05:09:21;;;;;;;3.70;3.40;;;2.40;99.90;;;;;;5034906;28;20230;-74
2022/01/20 05:11:56;;;;;;;4.00;3.70;;;2.50;99.90;;;;;;5038851;28;20276;-74
2022/01/20 05:14:22;;;;;;;4.53;4.20;;;2.50;99.90;;;;;;5029547;28;20202;-74
2022/01/20 05:16:47;;;;;;;4.30;3.90;;;2.40;99.90;;;;;;5038974;28;20181;-74
2022/01/20 05:19:13;;;;;;;4.00;3.70;;;2.40;99.90;;;;;;5040545;28;20203;-74
2022/01/20 05:21:38;;;;;;;5.20;3.90;;;2.40;99.90;;;;;;5034373;28;20256;-74
2022/01/20 05:24:04;;;;;;;3.27;3.00;;;2.50;99.90;;;;;;5031622;28;20213;-73
2022/01/20 05:26:30;;;;;;;3.90;3.60;;;2.40;99.90;;;;;;5032225;28;20188;-73
2022/01/20 05:28:56;;;;;;;2.60;2.40;;;2.50;99.90;;;;;;5032355;28;20251;-74
2022/01/20 05:31:21;;;;;;;2.43;2.23;;;2.50;99.90;;;;;;5022604;28;20211;-74
2022/01/20 05:33:47;;;;;;;3.83;3.30;;;2.50;99.90;;;;;;5030063;28;20283;-74
2022/01/20 05:36:13;;;;;;;3.20;3.00;;;2.40;99.90;;;;;;5042307;28;20218;-74
2022/01/20 05:38:38;;;;;;;5.07;2.90;;;2.40;99.90;;;;;;5042406;28;20219;-74
2022/01/20 05:41:04;;;;;;;3.37;3.17;;;2.40;99.90;;;;;;5031275;28;20184;-74
2022/01/20 05:43:30;;;;;;;3.20;3.00;;;2.40;99.90;;;;;;5023282;28;20205;-74
2022/01/20 05:45:55;;;;;;;3.87;3.50;;;2.40;99.90;;;;;;5036671;28;20199;-74
2022/01/20 05:48:32;;;;;;;5.07;4.00;;;2.40;99.90;;;;;;5041117;28;20557;-74
2022/01/20 05:50:59;;;;;;;2.53;2.43;;;2.30;99.90;;;;;;5021742;28;20698;-74
2022/01/20 05:53:25;;;;;;;4.73;3.63;;;2.30;99.90;;;;;;5029207;28;20689;-74
2022/01/20 05:55:51;;;;;;;4.77;3.83;;;2.30;99.90;;;;;;5047231;28;20180;-74
2022/01/20 05:58:16;;;;;;;3.40;3.20;;;2.30;99.90;;;;;;5033031;28;20168;-74
2022/01/20 06:00:42;;;;;;;4.00;3.70;;;2.40;99.90;;;;;;5020672;28;20201;-73
2022/01/20 06:05:53;;;;;;;4.23;3.93;;;2.50;99.90;;;;;;5027010;28;20187;-73
2022/01/20 06:08:19;;;;;;;4.73;4.37;;;2.50;99.90;;;;;;5046581;28;20263;-73
2022/01/20 06:10:45;;;;;;;4.90;4.50;;;2.40;99.90;;;;;;5032055;28;21018;-72
2022/01/20 06:13:11;;;;;;;4.83;4.43;;;2.50;99.90;;;;;;5042168;28;20223;-73
2022/01/20 06:15:37;;;;;;;4.27;3.87;;;2.50;99.90;;;;;;5025971;28;20173;-73
2022/01/20 06:18:03;;;;;;;4.97;3.93;;;2.50;99.90;;;;;;5032045;28;20204;-73
2022/01/20 06:20:29;;;;;;;4.33;4.03;;;2.50;99.90;;;;;;5028723;28;20180;-74
2022/01/20 06:22:55;;;;;;;4.80;4.20;;;2.60;99.90;;;;;;5024168;28;20177;-74
2022/01/20 06:25:21;;;;;;;5.23;2.93;;;2.50;99.90;;;;;;5028794;28;20195;-74
2022/01/20 06:27:48;;;;;;;4.97;4.50;;;2.60;99.90;;;;;;5029746;28;20281;-74
2022/01/20 06:30:14;;;;;;;3.73;3.27;;;2.60;99.90;;;;;;5028525;28;21158;-73
2022/01/20 06:32:40;;;;;;;4.33;3.93;;;2.60;99.90;;;;;;5026904;28;20184;-74
2022/01/20 06:35:06;;;;;;;4.33;3.90;;;2.60;99.90;;;;;;5024459;28;20209;-73
2022/01/20 06:37:31;;;;;;;4.60;4.13;;;2.60;99.90;;;;;;5020039;28;20716;-73
2022/01/20 06:39:57;;;;;;;4.33;3.37;;;2.50;99.90;;;;;;5026952;28;20261;-74
2022/01/20 06:42:23;;;;;;;4.73;3.43;;;2.50;99.90;;;;;;5028513;28;20195;-74
2022/01/20 06:44:48;;;;;;;4.33;3.97;;;2.50;99.90;;;;;;5020817;28;20583;-72
2022/01/20 06:47:14;;;;;;;4.83;4.43;;;2.50;99.90;;;;;;5030559;28;20181;-72
2022/01/20 06:49:40;;;;;;;5.87;3.63;;;2.50;99.90;;;;;;5033630;28;20284;-72
2022/01/20 06:52:06;;;;;;;4.10;3.70;;;2.60;99.90;;;;;;5030846;28;20193;-72
2022/01/20 06:54:31;;;;;;;4.67;4.27;;;2.60;99.90;;;;;;5032371;28;20262;-73
2022/01/20 06:56:59;;;;;;;4.87;4.37;;;2.60;99.90;;;;;;5039882;28;20183;-73
2022/01/20 06:59:25;;;;;;;4.00;3.70;;;2.60;99.90;;;;;;5035025;28;20230;-73
2022/01/20 07:01:50;;;;;;;6.83;4.53;;;2.50;99.90;;;;;;5034095;28;20204;-73
2022/01/20 07:04:16;;;;;;;6.10;3.90;;;2.60;99.90;;;;;;5026871;28;20651;-73
2022/01/20 07:06:42;;;;;;;3.80;3.50;;;2.60;99.90;;;;;;5037094;28;20185;-73
2022/01/20 07:09:09;;;;;;;6.23;3.30;;;2.60;99.90;;;;;;5042441;28;20539;-73
2022/01/20 07:11:35;;;;;;;7.20;4.00;;;2.60;99.90;;;;;;5030431;28;20207;-74
2022/01/20 07:14:01;;;;;;;3.67;3.03;;;2.60;99.90;;;;;;5030465;28;20573;-73
2022/01/20 07:16:28;;;;;;;3.93;3.63;;;2.60;99.90;;;;;;5023719;28;20652;-73
2022/01/20 07:18:54;;;;;;;7.73;3.90;;;2.70;99.90;;;;;;5025551;28;20181;-73
2022/01/20 07:21:20;;;;;;;4.43;4.03;;;2.60;99.90;;;;;;5034665;28;20238;-73
2022/01/20 07:23:46;;;;;;;4.47;4.07;;;2.60;99.90;;;;;;5030304;28;20205;-73
2022/01/20 07:26:11;;;;;;;4.03;2.90;;;2.60;99.90;;;;;;5033544;28;20604;-73
2022/01/20 07:28:37;;;;;;;7.00;3.63;;;2.60;99.90;;;;;;5040737;28;20181;-73
2022/01/20 07:31:03;;;;;;;3.87;3.47;;;2.70;99.90;;;;;;5027853;28;20205;-73
2022/01/20 07:33:28;;;;;;;3.17;2.97;;;2.80;99.90;;;;;;5040086;28;22214;-72
2022/01/20 07:35:54;;;;;;;5.17;4.10;;;2.80;99.90;;;;;;5033212;28;20239;-72
2022/01/20 07:38:20;;;;;;;3.80;3.50;;;2.80;99.90;;;;;;5030207;28;20256;-72
2022/01/20 07:40:45;;;;;;;7.60;4.90;;;2.80;99.90;;;;;;5033306;28;20188;-72
2022/01/20 07:43:11;;;;;;;8.33;4.90;;;2.80;99.90;;;;;;5040435;28;20268;-72
2022/01/20 07:45:37;;;;;;;6.60;4.73;;;2.90;99.90;;;;;;5030371;28;20608;-72
2022/01/20 07:48:03;;;;;;;4.57;4.17;;;2.90;99.90;;;;;;5023185;28;20234;-72
2022/01/20 07:50:28;;;;;;;5.97;4.90;;;3.00;99.90;;;;;;5033172;28;20196;-72
2022/01/20 07:52:54;;;;;;;6.23;4.53;;;3.10;99.90;;;;;;5028047;28;20217;-75
2022/01/20 07:55:20;;;;;;;6.83;6.23;;;3.10;99.90;;;;;;5029567;28;20180;-74
2022/01/20 07:57:46;;;;;;;4.37;3.43;;;3.20;99.90;;;;;;5034904;28;20180;-73
2022/01/20 08:00:12;;;;;;;3.83;2.97;;;3.30;99.90;;;;;;5034037;28;20200;-74
2022/01/20 08:02:38;;;;;;;4.73;4.33;;;3.40;99.90;;;;;;5033854;28;20191;-73
2022/01/20 08:05:04;;;;;;;5.33;4.60;;;3.50;99.90;;;;;;5030069;28;20295;-73
2022/01/20 08:07:30;;;;;;;5.73;4.30;;;3.50;99.90;;;;;;5034049;28;20185;-74
2022/01/20 08:09:58;;;;;;;3.87;3.57;;;3.40;99.90;;;;;;5024989;28;20193;-76
2022/01/20 08:12:25;;;;;;;4.70;4.20;;;3.30;99.90;;;;;;5035198;28;20199;-75
2022/01/20 08:14:51;;;;;;;6.70;4.30;;;3.20;99.90;;;;;;5026534;28;20743;-75
2022/01/20 08:17:16;;;;;;;7.43;3.53;;;3.10;99.90;;;;;;5025785;28;20276;-75
2022/01/20 08:19:42;;;;;;;4.23;3.83;;;3.00;99.90;;;;;;5028707;28;20188;-75
2022/01/20 08:22:08;;;;;;;8.50;3.27;;;3.00;99.90;;;;;;5035315;28;20185;-75
2022/01/20 08:24:33;;;;;;;5.07;4.30;;;3.00;99.90;;;;;;5021171;28;20205;-75
2022/01/20 08:27:00;;;;;;;6.13;4.33;;;3.10;99.90;;;;;;5036676;28;20188;-75
2022/01/20 08:29:25;;;;;;;6.03;3.73;;;3.20;99.90;;;;;;5017854;28;20184;-75
2022/01/20 08:31:51;;;;;;;7.10;4.17;;;3.40;99.90;;;;;;5040272;28;20205;-75
2022/01/20 08:34:17;;;;;;;5.63;3.60;;;3.50;99.90;;;;;;5032523;28;20214;-75
2022/01/20 08:36:44;;;;;;;4.97;4.20;;;3.50;99.90;;;;;;5023406;28;20192;-73
2022/01/20 08:42:09;;;;;;;7.13;4.37;;;3.40;99.90;;;;;;5001810;28;20193;-75
2022/01/20 08:44:35;;;;;;;3.83;3.53;;;3.60;99.90;;;;;;5037641;28;20204;-75
2022/01/20 08:47:02;;;;;;;5.47;4.90;;;3.70;99.90;;;;;;5026632;28;20178;-73
2022/01/20 08:49:29;;;;;;;5.03;4.03;;;3.90;99.90;;;;;;5024867;28;20212;-72
2022/01/20 08:51:55;;;;;;;3.93;3.63;;;4.10;99.90;;;;;;5020723;28;20283;-72
2022/01/20 08:54:21;;;;;;;3.40;3.13;;;4.00;99.90;;;;;;5022287;28;20212;-72
2022/01/20 08:56:47;;;;;;;5.53;4.00;;;4.00;99.90;;;;;;5026025;28;20233;-73
2022/01/20 08:59:13;;;;;;;3.07;2.87;;;3.80;99.90;;;;;;5025782;28;20188;-72
2022/01/20 09:01:41;;;;;;;5.70;3.87;;;3.80;99.90;;;;;;5017628;28;20287;-72
2022/01/20 09:04:07;;;;;;;3.33;3.13;;;3.90;99.90;;;;;;5020926;28;20208;-72
2022/01/20 09:06:34;;;;;;;3.70;3.10;;;3.80;99.90;;;;;;5023697;28;20181;-72
2022/01/20 09:09:00;;;;;;;7.20;3.67;;;3.80;99.90;;;;;;5029261;28;20212;-73
2022/01/20 09:11:33;;;;;;;3.20;3.00;;;3.80;99.90;;;;;;5039266;28;20243;-72
2022/01/20 09:16:43;;;;;;;3.77;3.47;;;3.80;99.90;;;;;;5020319;28;20263;-72
2022/01/20 09:19:09;;;;;;;3.57;3.33;;;3.90;99.90;;;;;;5024465;28;20208;-72
2022/01/20 09:21:35;;;;;;;3.23;2.90;;;3.90;99.90;;;;;;5020581;28;20706;-72
2022/01/20 09:24:01;;;;;;;6.43;3.93;;;4.00;99.90;;;;;;5037996;28;20266;-72
2022/01/20 09:26:27;;;;;;;3.43;3.03;;;4.00;99.90;;;;;;5035415;28;20176;-73
2022/01/20 09:28:53;;;;;;;7.13;3.53;;;4.00;99.90;;;;;;5028015;28;20635;-72
2022/01/20 09:31:24;;;;;;;7.50;4.17;;;4.00;99.90;;;;;;5025279;28;20262;-72
2022/01/20 09:33:50;;;;;;;3.83;3.03;;;4.10;99.90;;;;;;5036851;28;20224;-72
2022/01/20 09:36:16;;;;;;;5.30;3.40;;;4.10;99.90;;;;;;5026425;28;20173;-72
2022/01/20 09:38:42;;;;;;;4.10;3.70;;;4.20;99.90;;;;;;5025489;28;20231;-72
2022/01/20 09:41:08;;;;;;;6.87;3.17;;;4.40;99.90;;;;;;5038476;28;20222;-72
2022/01/20 09:43:35;;;;;;;5.80;3.10;;;4.50;99.90;;;;;;5030947;28;20212;-71
2022/01/20 09:46:01;;;;;;;4.33;2.87;;;4.30;99.90;;;;;;5029441;28;20177;-70
2022/01/20 09:48:28;;;;;;;2.57;2.37;;;3.90;99.90;;;;;;5028186;28;20181;-70
2022/01/20 09:50:55;;;;;;;5.50;3.53;;;3.40;99.90;;;;;;5035531;28;20203;-71
2022/01/20 09:53:23;;;;;;;5.40;4.07;;;3.20;99.90;;;;;;5031200;28;20201;-71
2022/01/20 09:55:49;;;;;;;3.50;2.93;;;3.00;99.90;;;;;;5027527;28;20207;-72
2022/01/20 09:58:15;;;;;;;6.33;3.87;;;3.10;99.90;;;;;;5034980;28;20216;-72
2022/01/20 10:00:43;;;;;;;4.07;3.70;;;3.30;99.90;;;;;;5031571;28;20205;-70
2022/01/20 10:03:20;;;;;;;6.43;2.97;;;3.50;99.90;;;;;;5034642;28;20184;-71
2022/01/20 10:05:50;;;;;;;6.63;4.40;;;3.50;99.90;;;;;;5030137;28;20320;-71
2022/01/20 10:08:22;;;;;;;6.03;4.20;;;3.60;99.90;;;;;;5030878;28;20230;-69
2022/01/20 10:10:58;;;;;;;6.70;3.23;;;3.80;99.90;;;;;;5029053;28;20196;-71
2022/01/20 10:13:26;;;;;;;3.90;3.40;;;3.70;99.90;;;;;;5020498;28;20196;-71
2022/01/20 10:16:04;;;;;;;4.00;3.37;;;3.80;99.90;;;;;;5036438;28;20222;-71
2022/01/20 10:18:31;;;;;;;4.70;3.90;;;3.60;99.90;;;;;;5029048;28;20169;-71
2022/01/20 10:21:06;;;;;;;4.87;2.80;;;3.50;99.90;;;;;;5027318;28;20189;-72
2022/01/20 10:23:37;;;;;;;5.40;3.50;;;3.50;99.90;;;;;;5028159;28;20274;-72
2022/01/20 10:26:13;;;;;;;5.97;3.30;;;3.50;99.90;;;;;;5027715;28;20192;-71
2022/01/20 10:28:51;;;;;;;3.67;3.37;;;3.50;99.90;;;;;;5024527;28;20191;-71
2022/01/20 10:31:28;;;;;;;4.33;3.30;;;3.50;99.90;;;;;;5023601;28;20227;-72
2022/01/20 10:33:54;;;;;;;4.00;2.90;;;3.50;99.90;;;;;;5025376;28;20207;-71
2022/01/20 10:36:21;;;;;;;4.67;3.30;;;3.40;99.90;;;;;;5028915;28;20179;-74
2022/01/20 10:38:51;;;;;;;5.03;4.00;;;3.40;99.90;;;;;;5040099;28;20181;-74
2022/01/20 10:41:31;;;;;;;3.63;3.33;;;3.40;99.90;;;;;;5039534;28;20172;-75
2022/01/20 10:44:15;;;;;;;4.57;2.97;;;3.50;99.90;;;;;;5037963;28;20291;-74
2022/01/20 10:46:53;;;;;;;3.93;3.17;;;3.60;99.90;;;;;;5020053;28;20184;-75
2022/01/20 10:49:21;;;;;;;5.60;2.90;;;3.70;99.90;;;;;;5033864;28;20643;-75
2022/01/20 10:52:06;;;;;;;3.83;2.27;;;3.90;99.90;;;;;;5045267;28;20697;-74
2022/01/20 10:54:38;;;;;;;5.97;2.63;;;4.00;99.90;;;;;;5032960;28;20245;-76
2022/01/20 10:57:04;;;;;;;2.97;2.77;;;4.10;99.90;;;;;;5020469;28;20177;-76
2022/01/20 10:59:29;;;;;;;4.00;2.97;;;4.30;99.90;;;;;;5022244;28;20652;-76
2022/01/20 11:01:58;;;;;;;7.23;3.43;;;4.30;99.90;;;;;;5027807;28;20229;-77
2022/01/20 11:04:24;;;;;;;4.10;3.20;;;4.10;99.90;;;;;;5032383;28;20258;-72
2022/01/20 11:06:55;;;;;;;3.53;2.43;;;4.10;99.90;;;;;;5031830;28;20193;-72
2022/01/20 11:09:23;;;;;;;2.70;2.50;;;4.20;99.90;;;;;;5023634;28;20181;-72
2022/01/20 11:11:50;;;;;;;4.10;2.37;;;4.30;99.90;;;;;;5038102;28;20204;-72
2022/01/20 11:14:15;;;;;;;3.67;3.33;;;4.40;99.90;;;;;;5020573;28;20220;-72
2022/01/20 11:16:43;;;;;;;4.57;2.53;;;4.50;99.90;;;;;;5039083;28;20242;-73
2022/01/20 11:19:20;;;;;;;1.57;1.33;;;4.90;99.90;;;;;;5042482;28;20172;-73
2022/01/20 11:21:46;;;;;;;2.97;2.33;;;5.50;99.90;;;;;;5024347;28;20184;-73
2022/01/20 11:24:35;;;;;;;2.93;2.40;;;5.50;99.90;;;;;;5027752;28;20299;-73
2022/01/20 11:27:02;;;;;;;3.23;2.93;;;5.30;99.90;;;;;;5023714;28;20188;-73
2022/01/20 11:29:44;;;;;;;3.73;2.30;;;4.80;99.90;;;;;;5019760;28;20648;-73
2022/01/20 11:32:26;;;;;;;5.23;2.93;;;4.80;99.90;;;;;;5021070;28;20229;-73
2022/01/20 11:35:07;;;;;;;3.93;2.80;;;5.20;99.90;;;;;;5016870;28;20201;-73
2022/01/20 11:37:53;;;;;;;4.73;2.33;;;5.90;99.90;;;;;;5023083;28;20557;-73
2022/01/20 11:40:21;;;;;;;4.10;2.42;;;6.40;99.90;;;;;;5028462;28;20346;-73
2022/01/20 11:43:10;;;;;;;2.05;1.85;;;6.10;99.90;;;;;;5036685;28;20957;-73
2022/01/20 11:45:39;;;;;;;4.30;2.72;;;5.50;99.90;;;;;;5023113;28;20310;-73
2022/01/20 11:48:30;;;;;;;2.47;2.03;;;5.30;99.90;;;;;;5032480;28;20192;-73
2022/01/20 11:51:08;;;;;;;2.45;2.25;;;5.10;99.90;;;;;;5034604;28;20213;-74
2022/01/20 11:53:41;;;;;;;3.53;1.90;;;4.80;99.90;;;;;;5026152;28;20224;-74
2022/01/20 11:56:08;;;;;;;5.17;3.27;;;4.70;99.90;;;;;;5043635;28;20184;-74
2022/01/20 11:58:34;;;;;;;1.67;1.63;;;4.30;99.90;;;;;;5038677;28;20181;-74
2022/01/20 12:01:00;;;;;;;3.03;2.73;;;4.10;99.90;;;;;;5024259;28;20272;-74
2022/01/20 12:03:25;;;;;;;4.67;2.33;;;4.00;99.90;;;;;;5030889;28;20201;-74
2022/01/20 12:06:08;;;;;;;2.67;2.23;;;3.90;99.90;;;;;;5036177;28;20181;-74
2022/01/20 12:08:34;;;;;;;2.80;2.50;;;3.80;99.90;;;;;;5025926;28;20173;-76
2022/01/20 12:11:05;;;;;;;3.10;1.63;;;3.60;99.90;;;;;;5033190;28;20667;-75
2022/01/20 12:13:31;;;;;;;1.40;1.40;;;3.00;99.90;;;;;;5034119;28;20219;-75
2022/01/20 12:16:00;;;;;;;3.30;1.43;;;2.20;99.90;;;;;;5026505;28;20177;-74
2022/01/20 12:18:27;;;;;;;1.93;1.67;;;1.40;99.90;;;;;;5040051;28;20174;-76
2022/01/20 12:20:52;;;;;;;1.60;1.50;;;1.00;99.90;;;;;;5033987;28;20180;-75
2022/01/20 12:23:19;;;;;;;3.53;1.50;;;0.80;99.90;;;;;;5029335;28;20679;-75
2022/01/20 12:25:45;;;;;;;1.57;1.17;;;0.60;99.90;;;;;;5027300;28;20597;-76
2022/01/20 12:28:13;;;;;;;1.17;1.07;;;0.60;99.90;;;;;;5016246;28;20584;-76
2022/01/20 12:30:47;;;;;;;3.90;1.27;;;0.50;99.90;;;;;;5032822;28;20201;-76
2022/01/20 12:33:15;;;;;;;1.67;1.03;;;0.60;99.90;;;;;;5041946;28;21488;-76
2022/01/20 12:35:49;;;;;;;2.43;1.40;;;0.60;99.90;;;;;;5039554;28;20188;-76
2022/01/20 12:38:30;;;;;;;4.00;1.80;;;0.60;99.90;;;;;;5028307;28;20215;-76
2022/01/20 12:41:05;;;;;;;1.57;1.47;;;0.70;99.90;;;;;;5029691;28;20175;-78
2022/01/20 12:43:50;;;;;;;3.90;1.80;;;0.90;99.90;;;;;;5028893;28;20292;-74
2022/01/20 12:46:22;;;;;;;3.20;1.90;;;1.30;99.90;;;;;;5036715;28;20200;-74
2022/01/20 12:49:04;;;;;;;2.33;1.30;;;1.70;99.90;;;;;;5043643;28;20564;-73
2022/01/20 12:51:53;;;;;;;1.47;1.37;;;1.80;99.90;;;;;;5024475;28;20813;-73
2022/01/20 12:54:26;;;;;;;2.93;1.53;;;1.70;99.90;;;;;;5025581;28;20788;-72
2022/01/20 12:56:57;;;;;;;6.37;1.67;;;1.80;99.90;;;;;;5029060;28;20211;-72
2022/01/20 12:59:30;;;;;;;1.67;1.30;;;1.90;99.90;;;;;;5020922;28;20181;-71
2022/01/20 13:02:22;;;;;;;3.57;1.57;;;2.00;99.90;;;;;;5021950;28;20669;-71
2022/01/20 13:04:54;;;;;;;1.70;1.27;;;1.90;99.90;;;;;;5018006;28;20251;-72
2022/01/20 13:07:19;;;;;;;4.03;1.83;;;1.90;99.90;;;;;;5027410;28;20180;-73
2022/01/20 13:09:49;;;;;;;1.43;1.33;;;1.80;99.90;;;;;;5021488;28;20196;-72
2022/01/20 13:12:17;;;;;;;1.23;1.20;;;1.80;99.90;;;;;;5020395;28;20176;-72
2022/01/20 13:14:44;;;;;;;2.43;2.03;;;1.80;99.90;;;;;;5028786;28;20209;-72
2022/01/20 13:17:19;;;;;;;0.87;0.87;;;1.80;99.90;;;;;;5027043;28;20260;-72
2022/01/20 13:19:47;;;;;;;2.63;1.20;;;1.80;99.90;;;;;;5024849;28;20196;-71
2022/01/20 13:22:42;;;;;;;2.83;1.73;;;1.70;99.90;;;;;;5024277;28;20184;-74
2022/01/20 13:25:08;;;;;;;1.50;1.40;;;1.60;99.90;;;;;;5022090;28;20200;-75
2022/01/20 13:27:34;;;;;;;4.00;2.83;;;1.80;99.90;;;;;;5029192;28;20196;-76
2022/01/20 13:30:00;;;;;;;3.37;1.90;;;1.90;99.90;;;;;;5033728;28;20785;-77
2022/01/20 13:32:26;;;;;;;3.50;1.70;;;2.00;99.90;;;;;;5021028;28;20191;-72
2022/01/20 13:35:01;;;;;;;2.93;1.40;;;2.10;99.90;;;;;;5024298;28;20736;-72
2022/01/20 13:37:30;;;;;;;4.03;1.77;;;2.30;99.90;;;;;;5027132;28;20670;-72
2022/01/20 13:39:57;;;;;;;4.40;1.80;;;2.30;99.90;;;;;;5024427;28;20259;-73
2022/01/20 13:45:26;;;;;;;4.83;1.90;;;2.40;99.90;;;;;;5025122;28;20196;-72
2022/01/20 13:47:57;;;;;;;3.17;1.73;;;2.50;99.90;;;;;;5001213;28;20220;-72
2022/01/20 13:50:28;;;;;;;1.47;1.40;;;2.50;99.90;;;;;;5024901;28;20244;-72
2022/01/20 13:52:54;;;;;;;5.50;1.67;;;2.30;99.90;;;;;;5024586;28;20181;-72
2022/01/20 13:55:36;;;;;;;4.33;2.80;;;2.40;99.90;;;;;;5030054;28;20196;-71
2022/01/20 13:58:02;;;;;;;3.53;1.33;;;2.60;99.90;;;;;;5027925;28;20188;-72
2022/01/20 14:00:35;;;;;;;2.43;1.70;;;2.80;99.90;;;;;;5028966;28;20258;-71
2022/01/20 14:03:06;;;;;;;3.03;1.60;;;2.80;99.90;;;;;;5030110;28;20184;-71
2022/01/20 14:05:33;;;;;;;2.77;2.03;;;2.70;99.90;;;;;;5039664;28;20628;-71
2022/01/20 14:08:01;;;;;;;3.33;1.53;;;2.50;99.90;;;;;;5040278;28;20180;-72
2022/01/20 14:10:28;;;;;;;2.87;1.80;;;2.30;99.90;;;;;;5034231;28;20211;-72
2022/01/20 14:12:54;;;;;;;4.20;2.00;;;2.00;99.90;;;;;;5033846;28;20645;-72
2022/01/20 14:15:21;;;;;;;5.10;1.90;;;2.00;99.90;;;;;;5028998;28;20200;-71
2022/01/20 14:17:52;;;;;;;3.97;1.70;;;2.00;99.90;;;;;;5036561;28;20187;-71
2022/01/20 14:20:19;;;;;;;4.70;2.00;;;2.10;99.90;;;;;;5031239;28;20658;-72
2022/01/20 14:22:45;;;;;;;1.27;1.10;;;2.30;99.90;;;;;;5032825;28;20181;-71
2022/01/20 14:25:11;;;;;;;2.47;1.43;;;2.30;99.90;;;;;;5036838;28;20200;-71
2022/01/20 14:27:37;;;;;;;8.13;1.90;;;2.20;99.90;;;;;;5042261;28;20212;-71